Time;durP1;ratioP1;P1;durP2;ratioP2;P2;SDS_P1;SDS_P2;PMS_P1;PMS_P2;Temp;Humidity;BMP_temperature;BMP_pressure;BME280_temperature;BME280_humidity;BME280_pressure;Samples;Min_cycle;Max_cycle;Signal;HPM_P1;HPM_P2
2023/03/29 00:02:18;;;;;;;1.50;1.40;;;;;;;3.78;51.27;97089.47;4911545;29;20271;-77
2023/03/29 00:04:45;;;;;;;5.70;1.70;;;;;;;3.73;51.14;97092.09;4912189;29;20206;-78
2023/03/29 00:07:13;;;;;;;1.83;1.47;;;;;;;3.80;50.67;97090.28;4911269;29;20207;-77
2023/03/29 00:09:40;;;;;;;1.57;1.20;;;;;;;3.83;51.24;97087.69;4912145;29;20734;-77
2023/03/29 00:12:07;;;;;;;1.70;1.23;;;;;;;3.82;50.67;97093.66;4911092;29;20194;-77
2023/03/29 00:14:34;;;;;;;1.77;1.30;;;;;;;3.69;51.03;97074.28;4912106;29;20206;-78
2023/03/29 00:17:01;;;;;;;1.90;1.23;;;;;;;3.82;51.16;97098.78;4911582;29;20206;-77
2023/03/29 00:19:28;;;;;;;2.13;1.60;;;;;;;3.84;51.44;97102.16;4911499;29;20229;-77
2023/03/29 00:21:55;;;;;;;2.50;1.40;;;;;;;3.83;52.40;97100.47;4912502;29;20226;-77
2023/03/29 00:24:22;;;;;;;2.00;1.33;;;;;;;3.75;51.89;97092.91;4910971;29;20241;-78
2023/03/29 00:26:49;;;;;;;1.40;1.30;;;;;;;3.75;51.91;97107.47;4911758;29;20226;-74
2023/03/29 00:29:16;;;;;;;1.33;1.23;;;;;;;3.70;52.21;97109.25;4910949;29;20198;-78
2023/03/29 00:31:50;;;;;;;1.57;1.33;;;;;;;3.61;52.18;97119.66;4911528;29;20186;-74
2023/03/29 00:34:17;;;;;;;1.47;1.27;;;;;;;3.63;52.83;97105.09;4910984;29;20194;-77
2023/03/29 00:36:44;;;;;;;2.70;1.40;;;;;;;3.64;52.61;97099.13;4910982;29;20234;-77
2023/03/29 00:39:11;;;;;;;1.50;1.40;;;;;;;3.65;52.30;97100.78;4911832;29;20236;-77
2023/03/29 00:41:38;;;;;;;3.03;1.30;;;;;;;3.69;52.62;97095.59;4910634;29;20277;-75
2023/03/29 00:44:05;;;;;;;2.67;1.30;;;;;;;3.64;51.83;97099.13;4894432;29;20241;-76
2023/03/29 00:46:33;;;;;;;1.20;1.10;;;;;;;3.67;51.65;97104.19;4910411;29;20215;-75
2023/03/29 00:49:06;;;;;;;1.53;1.43;;;;;;;3.60;52.10;97092.38;4911364;29;20278;-76
2023/03/29 00:51:37;;;;;;;3.20;1.50;;;;;;;3.45;52.25;97103.72;4893599;29;20253;-77
2023/03/29 00:54:13;;;;;;;2.43;1.40;;;;;;;3.25;53.00;97075.91;4910832;29;20289;-78
2023/03/29 00:56:46;;;;;;;1.20;1.10;;;;;;;3.20;52.87;97064.03;4911308;29;20677;-76
2023/03/29 00:59:19;;;;;;;2.50;1.37;;;;;;;3.37;53.39;97102.16;4893415;29;20221;-80
2023/03/29 01:01:47;;;;;;;1.33;1.20;;;;;;;3.38;52.95;97096.19;4911569;29;20187;-80
2023/03/29 01:04:17;;;;;;;1.80;1.30;;;;;;;3.35;52.46;97106.44;4893435;29;20195;-77
2023/03/29 01:06:55;;;;;;;1.40;1.30;;;;;;;3.28;52.52;97101.44;4894174;29;20664;-75
2023/03/29 01:09:25;;;;;;;1.83;1.37;;;;;;;3.23;52.47;97103.25;4910832;29;20244;-77
2023/03/29 01:11:57;;;;;;;2.00;1.60;;;;;;;3.23;52.51;97102.38;4893498;29;20200;-76
2023/03/29 01:14:40;;;;;;;2.00;1.40;;;;;;;2.81;53.07;97034.00;4894352;29;20758;-77
2023/03/29 01:17:11;;;;;;;1.47;1.37;;;;;;;3.18;52.21;97102.47;4877650;29;20720;-78
2023/03/29 01:19:48;;;;;;;1.37;1.27;;;;;;;3.17;52.59;97087.97;4910801;29;20222;-81
2023/03/29 01:22:38;;;;;;;2.30;1.60;;;;;;;3.27;52.20;97114.25;4893588;29;20206;-78
2023/03/29 01:25:15;;;;;;;1.77;1.40;;;;;;;3.26;52.15;97108.28;4910086;29;20934;-77
2023/03/29 01:28:02;;;;;;;1.30;1.20;;;;;;;3.22;51.67;97134.78;4911006;29;20198;-74
2023/03/29 01:30:39;;;;;;;1.37;1.27;;;;;;;3.18;52.14;97101.59;4910618;29;20253;-78
2023/03/29 01:33:36;;;;;;;2.20;1.43;;;;;;;3.19;51.99;97100.75;4893215;29;20208;-74
2023/03/29 01:36:13;;;;;;;1.43;1.30;;;;;;;3.14;51.75;97103.38;4910942;29;20290;-77
2023/03/29 01:38:55;;;;;;;3.23;1.77;;;;;;;3.07;51.54;97112.00;4909855;29;20238;-77
2023/03/29 01:41:32;;;;;;;1.73;1.60;;;;;;;3.11;51.65;97112.81;4893797;29;20198;-77
2023/03/29 01:44:06;;;;;;;1.30;1.20;;;;;;;3.11;50.74;97118.75;4910683;29;20805;-77
2023/03/29 01:46:45;;;;;;;2.63;1.47;;;;;;;3.16;50.85;97106.75;4910250;29;20862;-76
2023/03/29 01:49:24;;;;;;;3.40;1.73;;;;;;;3.09;50.85;97112.00;4878395;29;20285;-77
2023/03/29 01:51:58;;;;;;;2.17;1.53;;;;;;;3.09;50.16;97110.25;4893311;29;20296;-77
2023/03/29 01:54:32;;;;;;;3.30;1.77;;;;;;;3.13;49.91;97122.13;4893489;29;20198;-79
2023/03/29 01:57:03;;;;;;;2.23;1.60;;;;;;;3.20;50.08;97128.00;4910855;29;20701;-78
2023/03/29 01:59:34;;;;;;;1.70;1.50;;;;;;;3.18;49.87;97133.16;4909994;29;20226;-77
2023/03/29 02:02:07;;;;;;;2.07;1.43;;;;;;;3.18;50.74;97115.25;4893943;29;20246;-75
2023/03/29 02:04:38;;;;;;;2.20;1.60;;;;;;;3.20;49.87;97112.66;4912287;29;20222;-77
2023/03/29 02:07:07;;;;;;;3.33;1.60;;;;;;;3.24;51.29;97115.16;4897158;29;20198;-77
2023/03/29 02:09:37;;;;;;;2.10;1.60;;;;;;;3.04;50.23;97104.38;4914098;29;20623;-79
2023/03/29 02:12:06;;;;;;;2.23;1.70;;;;;;;2.86;50.43;97094.44;4896660;29;20193;-77
2023/03/29 02:14:33;;;;;;;2.80;1.53;;;;;;;3.01;50.89;97122.31;4914334;29;20221;-77
2023/03/29 02:17:25;;;;;;;1.60;1.47;;;;;;;2.98;51.13;97126.66;4899185;29;20758;-77
2023/03/29 02:20:00;;;;;;;2.50;1.70;;;;;;;3.01;49.84;97119.78;4897266;29;20262;-79
2023/03/29 02:22:35;;;;;;;1.50;1.40;;;;;;;2.98;49.59;97130.06;4913482;29;20198;-77
2023/03/29 02:25:07;;;;;;;4.37;1.80;;;;;;;2.93;49.89;97129.28;4913315;29;20589;-77
2023/03/29 02:27:36;;;;;;;3.77;2.27;;;;;;;2.85;50.50;97114.91;4896670;29;20241;-80
2023/03/29 02:30:09;;;;;;;1.80;1.63;;;;;;;2.81;50.26;97126.91;4895679;29;20187;-77
2023/03/29 02:32:48;;;;;;;4.50;2.77;;;;;;;2.76;50.75;97144.00;4896713;29;20674;-78
2023/03/29 02:35:22;;;;;;;3.50;2.10;;;;;;;2.76;49.97;97144.00;4896234;29;20197;-78
2023/03/29 02:37:53;;;;;;;4.60;2.70;;;;;;;2.82;49.81;97141.38;4880662;29;20206;-75
2023/03/29 02:40:23;;;;;;;16.53;7.30;;;;;;;2.74;49.45;97124.47;4896451;29;20222;-77
2023/03/29 02:42:54;;;;;;;9.50;4.73;;;;;;;2.80;49.11;97121.81;4912409;29;20229;-77
2023/03/29 02:45:22;;;;;;;12.00;4.67;;;;;;;2.81;48.14;97144.78;4896718;29;20661;-77
2023/03/29 02:47:55;;;;;;;29.90;11.20;;;;;;;2.70;48.85;97145.81;4895694;29;20705;-79
2023/03/29 02:50:25;;;;;;;14.00;5.53;;;;;;;2.50;48.56;97128.16;4896054;29;20191;-76
2023/03/29 02:52:58;;;;;;;22.40;10.17;;;;;;;2.69;49.24;97150.06;4895893;29;20207;-78
2023/03/29 02:55:33;;;;;;;9.23;4.50;;;;;;;2.71;49.41;97156.00;4912777;29;20198;-77
2023/03/29 02:58:07;;;;;;;9.03;3.90;;;;;;;2.64;48.97;97141.59;4896398;29;20713;-75
2023/03/29 03:00:39;;;;;;;12.00;5.90;;;;;;;2.62;50.13;97148.44;4895382;29;20234;-78
2023/03/29 03:03:07;;;;;;;9.37;5.40;;;;;;;2.48;50.28;97137.56;4895899;29;20197;-78
2023/03/29 03:05:35;;;;;;;15.70;6.47;;;;;;;2.43;50.68;97149.56;4896028;29;20186;-73
2023/03/29 03:08:03;;;;;;;6.40;3.77;;;;;;;2.26;51.04;97136.16;4895693;29;20578;-77
2023/03/29 03:10:32;;;;;;;4.80;2.57;;;;;;;2.44;50.83;97169.13;4896460;29;20286;-77
2023/03/29 03:12:59;;;;;;;3.47;2.33;;;;;;;2.31;49.72;97165.88;4885951;29;20675;-78
2023/03/29 03:15:30;;;;;;;2.87;1.50;;;;;;;2.38;49.61;97190.50;4911877;29;20592;-79
2023/03/29 03:17:57;;;;;;;3.57;2.47;;;;;;;2.40;49.19;97177.72;4892314;29;20211;-76
2023/03/29 03:20:25;;;;;;;4.77;2.30;;;;;;;2.48;49.29;97186.13;4892485;29;20753;-78
2023/03/29 03:22:56;;;;;;;3.33;2.13;;;;;;;2.46;48.83;97200.63;4892590;29;20215;-78
2023/03/29 03:25:23;;;;;;;2.30;1.97;;;;;;;2.46;49.48;97187.84;4876469;29;20203;-78
2023/03/29 03:27:51;;;;;;;2.20;1.70;;;;;;;2.46;49.18;97187.84;4892694;29;20199;-78
2023/03/29 03:30:21;;;;;;;5.03;3.07;;;;;;;2.44;49.73;97204.91;4892035;29;20570;-77
2023/03/29 03:33:08;;;;;;;2.17;1.97;;;;;;;2.45;49.71;97196.41;4884230;29;20230;-76
2023/03/29 03:35:55;;;;;;;3.73;1.97;;;;;;;2.57;49.46;97205.63;4911173;29;20231;-78
2023/03/29 03:38:24;;;;;;;3.37;2.20;;;;;;;2.59;50.21;97217.53;4895250;29;20194;-76
2023/03/29 03:40:57;;;;;;;4.67;1.90;;;;;;;2.56;49.30;97217.53;4895846;29;20745;-78
2023/03/29 03:43:28;;;;;;;3.57;2.10;;;;;;;2.57;50.65;97232.03;4910370;29;20221;-77
2023/03/29 03:45:59;;;;;;;4.07;2.00;;;;;;;2.57;49.87;97224.38;4895719;29;20682;-76
2023/03/29 03:48:26;;;;;;;4.20;2.47;;;;;;;2.63;49.68;97228.56;4913413;29;20296;-76
2023/03/29 03:51:07;;;;;;;3.43;2.40;;;;;;;2.60;50.49;97231.97;4918832;29;20234;-75
2023/03/29 03:53:35;;;;;;;2.37;2.00;;;;;;;2.55;50.58;97215.88;4887732;29;20198;-79
2023/03/29 03:56:12;;;;;;;3.40;2.20;;;;;;;2.60;50.72;97236.28;4911218;29;20242;-74
2023/03/29 03:59:01;;;;;;;5.43;3.37;;;;;;;2.41;51.04;97230.53;4895429;29;20601;-76
2023/03/29 04:01:34;;;;;;;5.13;3.63;;;;;;;2.39;49.94;97216.91;4910701;29;20194;-78
2023/03/29 04:04:13;;;;;;;2.93;2.20;;;;;;;2.54;50.16;97242.28;4895181;29;20198;-80
2023/03/29 04:06:51;;;;;;;6.40;3.47;;;;;;;2.47;50.10;97230.44;4894515;29;20701;-79
2023/03/29 04:09:54;;;;;;;1.97;1.77;;;;;;;2.43;50.13;97250.06;4902334;29;20228;-77
2023/03/29 04:12:42;;;;;;;3.70;3.03;;;;;;;2.36;50.67;97224.59;4902779;29;20298;-78
2023/03/29 04:15:10;;;;;;;3.17;2.40;;;;;;;2.34;51.10;97236.53;4912323;29;20203;-77
2023/03/29 04:17:44;;;;;;;3.53;2.13;;;;;;;2.27;50.46;97240.00;4916279;29;20190;-73
2023/03/29 04:20:32;;;;;;;4.53;2.10;;;;;;;2.22;51.25;97234.97;4910859;29;20242;-75
2023/03/29 04:23:00;;;;;;;4.73;1.80;;;;;;;2.24;51.10;97242.63;4912674;29;20288;-77
2023/03/29 04:25:28;;;;;;;2.77;2.30;;;;;;;2.21;52.01;97224.75;4930771;29;20700;-79
2023/03/29 04:28:14;;;;;;;5.73;2.83;;;;;;;2.23;51.96;97243.47;4913664;29;20326;-81
2023/03/29 04:31:12;;;;;;;2.50;2.20;;;;;;;2.25;51.80;97234.94;4912808;29;20223;-78
2023/03/29 04:33:48;;;;;;;4.37;2.13;;;;;;;2.21;51.98;97245.19;4896614;29;20209;-78
2023/03/29 04:36:16;;;;;;;5.33;2.30;;;;;;;2.19;52.60;97232.44;4909636;29;20213;-75
2023/03/29 04:38:43;;;;;;;4.57;2.30;;;;;;;2.27;51.87;97232.34;4910391;29;20645;-77
2023/03/29 04:41:14;;;;;;;2.40;2.20;;;;;;;2.30;52.46;97243.41;4910654;29;20225;-75
2023/03/29 04:43:54;;;;;;;3.67;2.37;;;;;;;2.19;51.78;97226.47;4909090;29;20195;-78
2023/03/29 04:46:26;;;;;;;2.93;2.30;;;;;;;2.33;52.85;97248.47;4910200;29;20214;-74
2023/03/29 04:49:13;;;;;;;3.77;2.40;;;;;;;2.48;52.37;97247.47;4909191;29;20198;-76
2023/03/29 04:51:44;;;;;;;2.87;1.90;;;;;;;2.55;51.13;97240.56;4878965;29;20678;-73
2023/03/29 04:54:11;;;;;;;4.97;2.90;;;;;;;2.71;51.37;97265.09;4909813;29;20257;-77
2023/03/29 04:57:14;;;;;;;2.70;1.80;;;;;;;2.66;51.06;97247.25;4880807;29;20194;-75
2023/03/29 04:59:54;;;;;;;2.20;1.97;;;;;;;2.88;50.97;97258.94;4893871;29;20780;-76
2023/03/29 05:02:42;;;;;;;2.10;1.97;;;;;;;2.89;50.83;97252.94;4910392;29;20194;-77
2023/03/29 05:05:11;;;;;;;4.93;2.80;;;;;;;2.99;51.24;97256.22;4893455;29;20701;-76
2023/03/29 05:07:39;;;;;;;4.23;2.87;;;;;;;3.19;50.87;97256.81;4909706;29;20179;-78
2023/03/29 05:10:10;;;;;;;2.47;2.10;;;;;;;3.10;50.13;97262.91;4908461;29;20650;-78
2023/03/29 05:12:38;;;;;;;2.47;2.10;;;;;;;3.22;50.00;97255.06;4909467;29;20208;-77
2023/03/29 05:15:07;;;;;;;4.07;2.67;;;;;;;3.17;48.96;97256.00;4910494;29;20258;-78
2023/03/29 05:17:34;;;;;;;2.87;1.70;;;;;;;3.11;50.45;97241.56;4893347;29;20190;-75
2023/03/29 05:20:11;;;;;;;2.77;2.30;;;;;;;3.28;49.67;97265.22;4893711;29;20229;-79
2023/03/29 05:22:41;;;;;;;2.57;2.10;;;;;;;3.30;49.32;97262.63;4893002;29;20190;-74
2023/03/29 05:25:12;;;;;;;2.20;1.93;;;;;;;3.36;49.23;97248.91;4909451;29;20299;-76
2023/03/29 05:27:42;;;;;;;6.63;2.40;;;;;;;3.40;49.18;97259.06;4886470;29;20528;-74
2023/03/29 05:30:10;;;;;;;3.27;2.50;;;;;;;3.31;49.05;97228.50;4887298;29;20199;-79
2023/03/29 05:33:01;;;;;;;3.60;2.30;;;;;;;3.47;48.54;97260.69;4872975;29;20260;-75
2023/03/29 05:35:29;;;;;;;2.40;2.10;;;;;;;3.32;49.37;97254.94;4886661;29;20204;-76
2023/03/29 05:37:59;;;;;;;3.47;2.60;;;;;;;3.39;48.77;97261.66;4888897;29;20200;-74
2023/03/29 05:40:26;;;;;;;2.83;2.10;;;;;;;3.35;47.77;97244.66;4889993;29;20220;-74
2023/03/29 05:43:22;;;;;;;4.10;2.43;;;;;;;3.70;48.21;97268.00;4859567;29;20200;-74
2023/03/29 05:45:52;;;;;;;2.33;1.83;;;;;;;3.70;47.73;97280.81;4890786;29;20602;-74
2023/03/29 05:48:22;;;;;;;3.57;2.20;;;;;;;3.74;47.82;97279.91;4859949;29;20192;-75
2023/03/29 05:50:51;;;;;;;2.43;1.90;;;;;;;3.85;47.64;97283.97;4891219;29;20188;-77
2023/03/29 05:53:19;;;;;;;2.20;1.77;;;;;;;3.78;47.03;97276.41;4874348;29;20210;-79
2023/03/29 05:55:47;;;;;;;2.43;2.07;;;;;;;3.75;46.96;97266.25;4891305;29;20200;-77
2023/03/29 05:58:17;;;;;;;5.47;2.43;;;;;;;3.91;46.83;97275.38;4890261;29;20932;-77
2023/03/29 06:00:48;;;;;;;1.67;1.57;;;;;;;3.88;46.50;97267.72;4874971;29;20326;-78
2023/03/29 06:03:46;;;;;;;8.67;2.43;;;;;;;4.01;46.60;97295.69;4875189;29;20220;-74
2023/03/29 06:06:15;;;;;;;2.00;1.80;;;;;;;3.90;45.96;97283.91;4874325;29;20188;-78
2023/03/29 06:08:43;;;;;;;3.10;1.97;;;;;;;3.99;46.56;97284.63;4859387;29;20229;-77
2023/03/29 06:11:43;;;;;;;3.73;1.90;;;;;;;3.84;46.33;97287.44;4880531;29;20203;-75
2023/03/29 06:14:30;;;;;;;2.30;2.10;;;;;;;3.92;46.03;97292.41;4873882;29;20244;-76
2023/03/29 06:17:10;;;;;;;2.70;2.17;;;;;;;4.25;45.67;97289.31;4876240;29;20641;-74
2023/03/29 06:19:37;;;;;;;3.57;2.33;;;;;;;4.43;45.07;97308.66;4875376;29;20231;-77
2023/03/29 06:22:04;;;;;;;2.60;2.10;;;;;;;4.37;44.52;97283.13;4874837;29;20224;-76
2023/03/29 06:24:33;;;;;;;2.30;2.07;;;;;;;4.58;44.37;97300.69;4874611;29;20947;-75
2023/03/29 06:27:06;;;;;;;2.30;2.10;;;;;;;4.54;43.77;97305.03;4892771;29;20628;-74
2023/03/29 06:29:34;;;;;;;2.27;1.83;;;;;;;4.33;44.10;97302.00;4919279;29;20202;-76
2023/03/29 06:32:02;;;;;;;3.37;2.50;;;;;;;4.15;43.47;97292.91;4910224;29;20644;-75
2023/03/29 06:34:53;;;;;;;4.97;2.70;;;;;;;4.33;43.79;97312.25;4895606;29;20195;-76
2023/03/29 06:37:39;;;;;;;3.20;2.50;;;;;;;4.38;42.74;97280.53;4910011;29;20592;-77
2023/03/29 06:40:18;;;;;;;3.03;1.97;;;;;;;4.43;42.64;97294.09;4894484;29;20231;-77
2023/03/29 06:42:47;;;;;;;4.10;2.17;;;;;;;4.69;42.44;97332.97;4895352;29;20201;-75
2023/03/29 06:45:46;;;;;;;2.90;2.00;;;;;;;4.58;42.25;97313.50;4893255;29;20199;-75
2023/03/29 06:48:21;;;;;;;2.93;2.50;;;;;;;4.83;40.94;97341.25;4892985;29;20255;-77
2023/03/29 06:50:49;;;;;;;4.40;2.57;;;;;;;4.72;41.06;97332.91;4893548;29;20194;-77
2023/03/29 06:53:16;;;;;;;2.43;1.67;;;;;;;4.69;41.13;97348.38;4901060;29;20202;-74
2023/03/29 06:55:52;;;;;;;3.80;1.90;;;;;;;4.68;41.33;97364.59;4919710;29;20263;-78
2023/03/29 06:58:40;;;;;;;1.60;1.50;;;;;;;4.85;41.22;97360.03;4882641;29;20214;-80
2023/03/29 07:01:27;;;;;;;2.87;1.60;;;;;;;4.53;40.70;97364.03;4893710;29;20236;-79
2023/03/29 07:04:06;;;;;;;4.07;1.93;;;;;;;4.78;40.44;97373.84;4892844;29;20258;-76
2023/03/29 07:06:57;;;;;;;2.00;1.80;;;;;;;4.88;40.11;97364.28;4891535;29;20207;-78
2023/03/29 07:09:25;;;;;;;2.70;1.77;;;;;;;5.20;40.57;97389.31;4892931;29;20196;-79
2023/03/29 07:12:21;;;;;;;2.87;2.00;;;;;;;5.20;39.91;97361.94;4891511;29;20274;-74
2023/03/29 07:14:50;;;;;;;3.40;2.00;;;;;;;5.30;40.46;97367.72;4891858;29;20187;-76
2023/03/29 07:17:17;;;;;;;1.97;1.77;;;;;;;5.04;39.90;97381.06;4908386;29;20196;-75
2023/03/29 07:19:45;;;;;;;2.90;1.97;;;;;;;4.99;39.35;97384.59;4875815;29;20707;-76
2023/03/29 07:22:43;;;;;;;3.73;2.00;;;;;;;4.92;38.92;97384.69;4880031;29;20587;-79
2023/03/29 07:25:11;;;;;;;3.17;1.93;;;;;;;4.93;38.67;97377.84;4892010;29;20211;-76
2023/03/29 07:27:41;;;;;;;4.00;1.70;;;;;;;4.85;38.88;97342.06;4876362;29;20232;-77
2023/03/29 07:30:10;;;;;;;2.53;2.33;;;;;;;5.14;39.12;97356.06;4892530;29;20259;-79
2023/03/29 07:32:40;;;;;;;5.67;1.93;;;;;;;5.37;38.08;97361.59;4906474;29;20239;-80
2023/03/29 07:35:22;;;;;;;1.83;1.57;;;;;;;5.31;38.64;97360.00;4873741;29;20203;-78
2023/03/29 07:37:49;;;;;;;1.80;1.53;;;;;;;5.49;38.20;97379.31;4883067;29;20213;-80
2023/03/29 07:40:21;;;;;;;1.93;1.53;;;;;;;5.51;37.40;97372.44;4890856;29;20690;-76
2023/03/29 07:42:57;;;;;;;1.50;1.40;;;;;;;5.37;36.87;97379.56;4893297;29;20197;-78
2023/03/29 07:45:28;;;;;;;1.90;1.40;;;;;;;5.49;37.77;97369.91;4876163;29;20201;-79
2023/03/29 07:48:08;;;;;;;4.00;1.70;;;;;;;5.56;38.58;97402.25;4907671;29;20196;-74
2023/03/29 07:50:51;;;;;;;2.70;1.60;;;;;;;5.40;38.39;97384.66;4890837;29;20211;-76
2023/03/29 07:53:23;;;;;;;1.60;1.50;;;;;;;5.25;37.54;97379.81;4907154;29;20589;-75
2023/03/29 07:55:53;;;;;;;1.50;1.40;;;;;;;5.28;36.71;97383.16;4891775;29;20200;-75
2023/03/29 07:58:40;;;;;;;1.40;1.30;;;;;;;5.08;36.38;97390.41;4890657;29;20252;-77
2023/03/29 08:01:07;;;;;;;4.00;1.60;;;;;;;5.20;36.79;97394.44;4906419;29;20223;-75
2023/03/29 08:03:57;;;;;;;2.40;1.77;;;;;;;5.15;38.09;97348.34;4902546;29;20211;-75
2023/03/29 08:06:44;;;;;;;1.53;1.43;;;;;;;5.67;36.72;97418.31;4910004;29;20213;-75
2023/03/29 08:09:11;;;;;;;3.27;1.93;;;;;;;5.86;36.63;97393.13;4912452;29;20195;-76
2023/03/29 08:11:41;;;;;;;2.07;1.43;;;;;;;5.78;36.42;97394.97;4925211;29;20184;-78
2023/03/29 08:14:35;;;;;;;1.70;1.43;;;;;;;5.63;36.90;97390.16;4911199;29;20295;-77
2023/03/29 08:17:12;;;;;;;1.77;1.37;;;;;;;5.63;36.49;97403.00;4895962;29;20247;-79
2023/03/29 08:19:45;;;;;;;2.53;1.60;;;;;;;5.63;36.71;97392.72;4909524;29;20199;-78
2023/03/29 08:22:28;;;;;;;2.70;1.70;;;;;;;5.85;35.90;97401.72;5104923;27;20554;-77
2023/03/29 08:25:13;;;;;;;3.30;1.80;;;;;;;6.22;35.87;97415.44;5105132;28;20193;-77
2023/03/29 08:27:45;;;;;;;3.40;2.03;;;;;;;6.32;35.21;97408.38;5084997;28;20277;-77
2023/03/29 08:30:16;;;;;;;2.07;1.63;;;;;;;6.38;34.89;97401.34;5086517;28;20202;-75
2023/03/29 08:32:43;;;;;;;1.90;1.73;;;;;;;6.26;36.11;97408.50;5084926;28;20194;-76
2023/03/29 08:35:14;;;;;;;1.67;1.40;;;;;;;6.15;36.84;97392.47;5086878;28;20185;-77
2023/03/29 08:37:51;;;;;;;5.23;3.30;;;;;;;5.98;37.42;97394.56;5085535;28;20269;-76
2023/03/29 08:40:21;;;;;;;2.87;2.30;;;;;;;6.13;36.53;97400.22;5103518;28;20213;-79
2023/03/29 08:43:21;;;;;;;3.03;2.10;;;;;;;6.07;37.17;97395.22;5104813;28;20187;-80
2023/03/29 08:46:35;;;;;;;2.83;2.03;;;;;;;6.39;36.38;97408.19;5047995;28;20202;-79
2023/03/29 08:49:25;;;;;;;2.73;1.60;;;;;;;6.36;36.66;97397.13;5067543;28;20196;-79
2023/03/29 08:51:57;;;;;;;1.73;1.63;;;;;;;6.45;37.47;97389.19;5086078;28;20186;-77
2023/03/29 08:54:29;;;;;;;2.87;2.00;;;;;;;6.73;36.96;97410.78;5102418;28;20190;-76
2023/03/29 08:57:31;;;;;;;1.90;1.70;;;;;;;6.37;36.64;97399.66;5104216;28;20274;-78
2023/03/29 09:00:09;;;;;;;2.57;1.90;;;;;;;6.78;36.19;97402.97;5086392;28;20652;-77
2023/03/29 09:02:40;;;;;;;3.60;2.10;;;;;;;6.91;36.97;97391.44;5067133;28;20553;-77
2023/03/29 09:05:19;;;;;;;3.03;1.90;;;;;;;6.62;37.87;97404.19;5086182;28;20192;-75
2023/03/29 09:07:56;;;;;;;1.93;1.73;;;;;;;6.26;37.69;97386.22;5084185;28;20210;-76
2023/03/29 09:10:34;;;;;;;1.97;1.77;;;;;;;6.38;37.85;97393.63;5085340;28;20190;-78
2023/03/29 09:13:26;;;;;;;4.53;2.03;;;;;;;6.62;37.74;97388.75;5104521;28;20183;-77
2023/03/29 09:16:28;;;;;;;5.07;2.20;;;;;;;6.84;35.63;97393.34;5102264;28;20222;-78
2023/03/29 09:19:39;;;;;;;3.83;2.67;;;;;;;7.14;36.92;97389.13;5067276;28;20202;-78
2023/03/29 09:22:25;;;;;;;3.03;1.83;;;;;;;7.14;35.20;97386.56;5068428;28;20230;-80
2023/03/29 09:25:11;;;;;;;2.33;1.50;;;;;;;6.63;36.33;97403.34;5084054;28;20184;-78
2023/03/29 09:27:55;;;;;;;1.80;1.70;;;;;;;6.22;36.65;97397.41;5086585;28;20188;-78
2023/03/29 09:31:15;;;;;;;5.63;3.33;;;;;;;6.26;38.38;97406.78;5090533;28;20184;-77
2023/03/29 09:33:55;;;;;;;4.63;2.70;;;;;;;6.16;37.51;97396.75;5071591;28;20187;-77
2023/03/29 09:36:33;;;;;;;1.63;1.30;;;;;;;5.73;37.52;97401.91;5056067;28;20261;-78
2023/03/29 09:39:02;;;;;;;1.60;1.50;;;;;;;5.81;38.34;97389.78;5090626;28;20189;-76
2023/03/29 09:41:40;;;;;;;2.40;1.80;;;;;;;6.17;38.27;97401.00;5070434;28;20227;-83
2023/03/29 09:44:16;;;;;;;2.77;1.50;;;;;;;6.22;38.21;97405.13;5090446;28;20209;-77
2023/03/29 09:47:20;;;;;;;4.13;2.63;;;;;;;6.35;38.38;97385.97;5071007;28;20197;-79
2023/03/29 09:49:56;;;;;;;2.13;1.93;;;;;;;6.74;37.62;97391.88;5070111;28;20700;-80
2023/03/29 09:52:24;;;;;;;3.47;2.27;;;;;;;6.36;38.33;97410.84;5072148;28;20323;-76
2023/03/29 09:55:03;;;;;;;2.10;1.70;;;;;;;5.88;38.04;97391.34;5070295;28;20289;-75
2023/03/29 09:57:57;;;;;;;3.13;2.00;;;;;;;6.03;38.31;97398.75;5066501;28;20208;-80
2023/03/29 10:00:24;;;;;;;2.67;1.80;;;;;;;6.16;36.22;97397.56;5071863;28;20202;-81
2023/03/29 10:02:55;;;;;;;3.27;2.20;;;;;;;6.18;36.73;97392.41;5071217;28;20646;-80
2023/03/29 10:05:36;;;;;;;1.90;1.70;;;;;;;5.96;37.33;97393.75;5071724;28;20282;-79
2023/03/29 10:08:29;;;;;;;2.30;1.67;;;;;;;5.93;38.52;97399.84;5088959;28;20212;-80
2023/03/29 10:10:59;;;;;;;3.93;2.30;;;;;;;5.73;39.10;97407.06;5072198;28;20197;-78
2023/03/29 10:13:32;;;;;;;3.30;2.30;;;;;;;5.72;38.79;97413.94;5090240;28;20185;-75
2023/03/29 10:16:01;;;;;;;1.93;1.70;;;;;;;5.92;38.99;97380.13;5088993;28;20207;-77
2023/03/29 10:18:31;;;;;;;3.37;1.97;;;;;;;6.10;38.07;97382.28;5089891;28;20198;-76
2023/03/29 10:21:02;;;;;;;3.60;1.93;;;;;;;6.20;35.28;97393.22;5087351;28;20627;-82
2023/03/29 10:23:37;;;;;;;4.40;1.97;;;;;;;6.40;36.09;97373.88;5089355;28;20274;-77
2023/03/29 10:26:10;;;;;;;2.27;2.03;;;;;;;6.71;35.42;97379.09;5088953;28;20254;-80
2023/03/29 10:28:37;;;;;;;3.03;1.93;;;;;;;6.29;36.10;97390.41;5087908;28;20584;-78
2023/03/29 10:31:06;;;;;;;4.47;2.10;;;;;;;6.15;36.78;97398.47;5054520;28;20207;-75
2023/03/29 10:33:35;;;;;;;3.77;1.83;;;;;;;6.09;37.34;97393.47;5069176;28;20629;-74
2023/03/29 10:36:05;;;;;;;5.10;2.07;;;;;;;6.34;36.67;97378.31;5088680;28;20273;-78
2023/03/29 10:38:35;;;;;;;2.07;1.70;;;;;;;6.61;35.42;97369.06;5087450;28;20185;-79
2023/03/29 10:41:11;;;;;;;4.80;2.00;;;;;;;6.69;34.85;97390.31;5088052;28;20209;-77
2023/03/29 10:43:43;;;;;;;5.00;3.20;;;;;;;6.60;35.83;97383.66;5088063;28;20263;-75
2023/03/29 10:46:18;;;;;;;6.00;3.20;;;;;;;6.75;35.21;97385.88;5086647;28;20271;-78
2023/03/29 10:48:48;;;;;;;2.30;2.03;;;;;;;6.59;35.20;97394.84;5088671;28;20633;-75
2023/03/29 10:51:17;;;;;;;1.67;1.57;;;;;;;6.53;36.36;97382.13;5087108;28;20199;-75
2023/03/29 10:53:44;;;;;;;1.70;1.60;;;;;;;6.56;35.20;97384.63;5088665;28;20190;-78
2023/03/29 10:56:17;;;;;;;2.53;2.03;;;;;;;6.80;34.55;97384.00;5088247;28;20218;-78
2023/03/29 10:58:50;;;;;;;4.43;2.07;;;;;;;7.02;33.84;97353.41;5087660;28;20224;-74
2023/03/29 11:01:28;;;;;;;1.97;1.40;;;;;;;7.08;35.18;97363.53;5081828;28;20241;-74
2023/03/29 11:04:21;;;;;;;5.03;2.10;;;;;;;6.94;33.75;97363.94;5048791;28;20642;-77
2023/03/29 11:07:18;;;;;;;2.87;2.07;;;;;;;7.29;33.48;97357.81;5049857;28;20278;-76
2023/03/29 11:10:24;;;;;;;5.17;2.50;;;;;;;7.53;33.86;97358.84;5083967;28;20231;-75
2023/03/29 11:13:21;;;;;;;3.53;2.70;;;;;;;7.48;34.26;97355.56;5020838;28;20200;-75
2023/03/29 11:16:01;;;;;;;2.20;1.93;;;;;;;7.20;33.01;97358.06;5067119;28;20239;-78
2023/03/29 11:18:44;;;;;;;3.83;2.30;;;;;;;7.40;32.99;97355.75;5067982;28;20253;-74
2023/03/29 11:21:35;;;;;;;2.70;1.80;;;;;;;7.15;33.46;97352.19;5066057;28;20242;-77
2023/03/29 11:24:39;;;;;;;2.37;1.77;;;;;;;7.16;34.60;97361.59;5078874;28;20642;-76
2023/03/29 11:27:45;;;;;;;2.03;1.60;;;;;;;7.06;34.19;97347.28;5087811;28;20215;-77
2023/03/29 11:30:23;;;;;;;2.83;1.97;;;;;;;7.51;34.49;97353.75;4967826;28;20213;-77
2023/03/29 11:33:03;;;;;;;8.87;1.93;;;;;;;7.13;34.04;97323.91;5043742;28;20392;-78
2023/03/29 11:35:41;;;;;;;3.87;2.00;;;;;;;7.05;34.39;97337.88;5070452;28;20195;-79
2023/03/29 11:38:32;;;;;;;1.70;1.60;;;;;;;6.82;33.63;97341.06;5086142;28;20213;-76
2023/03/29 11:40:59;;;;;;;2.00;1.60;;;;;;;6.80;34.83;97367.75;5087877;28;20212;-75
2023/03/29 11:43:30;;;;;;;4.07;2.20;;;;;;;6.91;33.71;97334.81;5068427;28;20707;-77
2023/03/29 11:46:08;;;;;;;2.83;2.63;;;;;;;7.14;33.11;97327.31;5088655;28;20186;-76
2023/03/29 11:48:52;;;;;;;2.70;1.90;;;;;;;6.97;32.97;97316.63;5038333;28;20204;-76
2023/03/29 11:51:35;;;;;;;2.50;1.47;;;;;;;6.97;33.42;97324.34;5085997;28;20624;-75
2023/03/29 11:54:23;;;;;;;4.00;1.83;;;;;;;7.32;32.50;97331.94;5087917;28;20194;-75
2023/03/29 11:57:23;;;;;;;2.23;1.93;;;;;;;7.21;33.28;97308.25;5087199;28;20640;-73
2023/03/29 12:00:14;;;;;;;2.43;1.90;;;;;;;7.15;33.38;97327.28;5056903;28;20202;-78
2023/03/29 12:02:47;;;;;;;2.10;1.90;;;;;;;7.19;33.59;97325.47;5087454;28;20230;-74
2023/03/29 12:05:20;;;;;;;2.00;1.57;;;;;;;7.24;34.91;97336.47;5086530;28;20689;-74
2023/03/29 12:08:05;;;;;;;4.33;2.07;;;;;;;7.57;32.97;97311.47;5068916;28;20199;-78
2023/03/29 12:10:48;;;;;;;2.90;1.90;;;;;;;7.77;33.27;97317.72;5070880;28;20560;-73
2023/03/29 12:13:25;;;;;;;2.53;1.70;;;;;;;7.32;33.98;97331.94;5086062;28;20224;-75
2023/03/29 12:16:13;;;;;;;3.43;1.70;;;;;;;7.34;35.22;97328.44;5102704;28;20249;-77
2023/03/29 12:18:44;;;;;;;3.17;2.03;;;;;;;7.24;33.50;97321.88;5087805;28;20211;-79
2023/03/29 12:21:15;;;;;;;2.67;1.63;;;;;;;7.08;33.32;97322.34;5085335;28;20220;-77
2023/03/29 12:23:44;;;;;;;2.90;1.87;;;;;;;6.98;34.12;97337.22;5069245;28;20613;-77
2023/03/29 12:26:18;;;;;;;6.77;2.50;;;;;;;7.32;33.81;97319.06;5067498;28;20199;-77